Airfield :
LOGIN :

Register | Disclaimer

   EN    FR    IT 

 










Legend :    VFR   Marginal VFR   IFR   Intensive IFR   Very Intensive IFR
Visi :
Ceiling :
>= 8 km
>= 3000ft
5 to 8 km
1000 to 3000 ft
1500m to 5 km
500 to 1000 ft
800 to 1500m
200 to 500 ft
< 800m
< 200 ft
Symbols :   Thunderstorms  Fog  Heavy snow  Heavy precipitations  Wind > 20 kt
SIGMETs :     Misc.  Thunderstorms  Icing  Turbulence  Mountain Waves  Volcanic Ashes







- Airport Elevation : 616 ft
- IATA code : PUF
- Download approach charts


LFBP - Pau

CURRENT METAR :
  • 231130Z AUTO VRB04KT CAVOK 24/10 Q1021 NOSIG

EXPIRED METARs :
  • 231100Z AUTO 35004KT 310V040 CAVOK 24/10 Q1021 NOSIG
  • 231030Z AUTO VRB05KT CAVOK 23/13 Q1021 NOSIG
  • 231000Z AUTO 33004KT 290V030 CAVOK 22/16 Q1021 NOSIG
  • 230930Z AUTO 35005KT 300V050 CAVOK 21/16 Q1021 NOSIG
  • 230900Z AUTO VRB03KT CAVOK 21/16 Q1021 NOSIG
  • 230830Z AUTO VRB03KT CAVOK 20/14 Q1021 NOSIG

TAF TAF LFBP
Valid from the 23 at 12:00 until the 24 at 12:00 UTC


231100Z 2312/2412 04006KT CAVOK
BECMG 2321/2323 VRB02KT
BECMG 2409/2411 35005KT
No reported NOTAMs for that airfield.



MET'MAP, your aeronautical weather chart ! - Copyright ORBIFLY December 2007 - Disclaimer

ORBIFLY MET'MAP TEAM :

Programming & Development : Alexandra Zaïnal
Concept & Development : Baudouin d'Aumeries
Co-Development & Prog : Marc-Olivier Méhu
Technical & hardware support : Manuel Goepfert

Contact : metmap@orbifly.com




SOURCES & CREDITS :

   NOAA